Naikai2 — JD2433 — position and weather

sailwx.info

Track history (hours):
 
Tides and Currents Weather Stations Pressure Air Temp Water Temp Dewpoint Dewpoint Depression Visibility Wind Speed Wind Dir Waves Ship Positions

Naikai2

Last reported at 2014-Sep-15 07:23 UTC. Time now 2014-Sep-15 09:30 UTC.
Position N 34°37' E 135°09'.

Length 28 m; draft 2.2 m.

Type: Other ship. MMSI: 431000283.

Date/timePositionNaut miles runAvg speedWind from/ knotsBaromVisibWave heightAir tempDewpointWater temp
2014-Sep-15 07:23N 34°37' E 135°09'1214.7
2014-Sep-15 06:33N 34°26' E 135°04'10 9.8
2014-Sep-15 05:33N 34°17' E 134°58'1413.7
2014-Sep-15 04:33N 34°30' E 135°04'9 7.9
2014-Sep-15 03:29N 34°37' E 134°59'1 0.0
2014-Sep-14 01:30N 34°38' E 134°60'25 6.4
2014-Sep-13 21:34N 34°13' E 135°07'1 0.1
2014-Sep-13 06:27N 34°13' E 135°09'10 8.9
2014-Sep-13 05:21N 34°18' E 134°59'1214.7
2014-Sep-13 04:33N 34°29' E 135°03'8 7.7
2014-Sep-13 03:32N 34°37' E 135°01'7 0.3
2014-Sep-12 01:04N 34°35' E 134°52'714.1
2014-Sep-12 00:33N 34°38' E 135°00'7 7.1
2014-Sep-11 23:33N 34°33' E 135°07'9 9.4
2014-Sep-11 22:34N 34°24' E 135°03'1111.2
2014-Sep-11 21:33N 34°13' E 134°60'6 6.1
2014-Sep-11 20:34N 34°13' E 135°07'3 0.2
2014-Sep-11 05:33N 34°13' E 135°03'9 8.7
2014-Sep-11 04:32N 34°22' E 135°00'1313.0
2014-Sep-11 03:33N 34°33' E 135°08'6 6.4
2014-Sep-11 02:33N 34°36' E 135°02'7 0.3
2014-Sep-10 00:27N 34°35' E 134°53'910.5
2014-Sep-09 23:33N 34°36' E 135°05'4 4.4
2014-Sep-09 22:33N 34°32' E 135°08'1511.5
2014-Sep-09 21:16N 34°19' E 134°60'7 9.9
2014-Sep-09 20:33N 34°12' E 134°59'14 1.0
2014-Sep-09 07:07N 34°25' E 135°00'915.5
2014-Sep-09 06:33N 34°29' E 135°10'1414.0
2014-Sep-09 05:33N 34°34' E 135°26'5 5.0
2014-Sep-09 04:33N 34°33' E 135°20'4 3.6
2014-Sep-09 03:33N 34°36' E 135°17'7 6.6
2014-Sep-09 02:33N 34°40' E 135°11'1 0.1
2014-Sep-08 05:31N 34°39' E 135°10'1212.3
2014-Sep-08 04:33N 34°27' E 135°07'1412.9
2014-Sep-08 03:30N 34°15' E 134°59'1010.2
2014-Sep-08 02:33N 34°24' E 135°04'1414.3
2014-Sep-08 01:33N 34°33' E 135°18'6 6.1
2014-Sep-08 00:33N 34°33' E 135°25'1111.0
2014-Sep-07 23:33N 34°37' E 135°13'6 0.4
2014-Sep-07 07:33N 34°32' E 135°09'1714.8
2014-Sep-07 06:24N 34°17' E 134°59'8 7.4
2014-Sep-07 05:22N 34°24' E 135°01'1012.4
2014-Sep-07 04:33N 34°33' E 135°06'17 4.2
2014-Sep-07 00:33N 34°40' E 134°48'1413.8
2014-Sep-06 23:33N 34°37' E 135°04'3 0.2
2014-Sep-06 09:33N 34°36' E 135°07'9 8.5
2014-Sep-06 08:33N 34°36' E 134°57'3 1.0
2014-Sep-06 05:13N 34°38' E 134°59'5 1.2
2014-Sep-06 01:27N 34°36' E 134°55'910.1
2014-Sep-06 00:33N 34°35' E 135°06'21 8.5
2014-Sep-05 22:05N 34°15' E 134°59'2 3.3
2014-Sep-05 21:30N 34°13' E 135°00'1111.4
2014-Sep-05 20:33N 34°24' E 135°00'1414.4
2014-Sep-05 19:33N 34°37' E 135°09'3 2.6
2014-Sep-05 18:33N 34°39' E 135°10'  
Track history (hours):
 
Tides and Currents Weather Stations Pressure Air Temp Water Temp Dewpoint Dewpoint Depression Visibility Wind Speed Wind Dir Waves Ship Positions

Naikai2

Last reported at 2014-Sep-15 07:23 UTC. Time now 2014-Sep-15 09:30 UTC.
Position N 34°37' E 135°09'.

Length 28 m; draft 2.2 m.

Type: Other ship. MMSI: 431000283.

Date/timePositionNaut miles runAvg speedWind from/ knotsBaromVisibWave heightAir tempDewpointWater temp
2014-Sep-15 07:23N 34°37' E 135°09'1214.7
2014-Sep-15 06:33N 34°26' E 135°04'10 9.8
2014-Sep-15 05:33N 34°17' E 134°58'1413.7
2014-Sep-15 04:33N 34°30' E 135°04'9 7.9
2014-Sep-15 03:29N 34°37' E 134°59'1 0.0
2014-Sep-14 01:30N 34°38' E 134°60'25 6.4
2014-Sep-13 21:34N 34°13' E 135°07'1 0.1
2014-Sep-13 06:27N 34°13' E 135°09'10 8.9
2014-Sep-13 05:21N 34°18' E 134°59'1214.7
2014-Sep-13 04:33N 34°29' E 135°03'8 7.7
2014-Sep-13 03:32N 34°37' E 135°01'7 0.3
2014-Sep-12 01:04N 34°35' E 134°52'714.1
2014-Sep-12 00:33N 34°38' E 135°00'7 7.1
2014-Sep-11 23:33N 34°33' E 135°07'9 9.4
2014-Sep-11 22:34N 34°24' E 135°03'1111.2
2014-Sep-11 21:33N 34°13' E 134°60'6 6.1
2014-Sep-11 20:34N 34°13' E 135°07'3 0.2
2014-Sep-11 05:33N 34°13' E 135°03'9 8.7
2014-Sep-11 04:32N 34°22' E 135°00'1313.0
2014-Sep-11 03:33N 34°33' E 135°08'6 6.4
2014-Sep-11 02:33N 34°36' E 135°02'7 0.3
2014-Sep-10 00:27N 34°35' E 134°53'910.5
2014-Sep-09 23:33N 34°36' E 135°05'4 4.4
2014-Sep-09 22:33N 34°32' E 135°08'1511.5
2014-Sep-09 21:16N 34°19' E 134°60'7 9.9
2014-Sep-09 20:33N 34°12' E 134°59'14 1.0
2014-Sep-09 07:07N 34°25' E 135°00'915.5
2014-Sep-09 06:33N 34°29' E 135°10'1414.0
2014-Sep-09 05:33N 34°34' E 135°26'5 5.0
2014-Sep-09 04:33N 34°33' E 135°20'4 3.6
2014-Sep-09 03:33N 34°36' E 135°17'7 6.6
2014-Sep-09 02:33N 34°40' E 135°11'1 0.1
2014-Sep-08 05:31N 34°39' E 135°10'1212.3
2014-Sep-08 04:33N 34°27' E 135°07'1412.9
2014-Sep-08 03:30N 34°15' E 134°59'1010.2
2014-Sep-08 02:33N 34°24' E 135°04'1414.3
2014-Sep-08 01:33N 34°33' E 135°18'6 6.1
2014-Sep-08 00:33N 34°33' E 135°25'1111.0
2014-Sep-07 23:33N 34°37' E 135°13'6 0.4
2014-Sep-07 07:33N 34°32' E 135°09'1714.8
2014-Sep-07 06:24N 34°17' E 134°59'8 7.4
2014-Sep-07 05:22N 34°24' E 135°01'1012.4
2014-Sep-07 04:33N 34°33' E 135°06'17 4.2
2014-Sep-07 00:33N 34°40' E 134°48'1413.8
2014-Sep-06 23:33N 34°37' E 135°04'3 0.2
2014-Sep-06 09:33N 34°36' E 135°07'9 8.5
2014-Sep-06 08:33N 34°36' E 134°57'3 1.0
2014-Sep-06 05:13N 34°38' E 134°59'5 1.2
2014-Sep-06 01:27N 34°36' E 134°55'910.1
2014-Sep-06 00:33N 34°35' E 135°06'21 8.5
2014-Sep-05 22:05N 34°15' E 134°59'2 3.3
2014-Sep-05 21:30N 34°13' E 135°00'1111.4
2014-Sep-05 20:33N 34°24' E 135°00'1414.4
2014-Sep-05 19:33N 34°37' E 135°09'3 2.6
2014-Sep-05 18:33N 34°39' E 135°10'  

Dump ship's entire track history